createdAt,value
2023-02-11T00:01:33.784Z,7.00
2023-02-11T00:04:35.081Z,9.13
2023-02-11T00:07:36.495Z,8.60
2023-02-11T00:10:37.776Z,7.50
2023-02-11T00:13:39.195Z,7.63
2023-02-11T00:16:40.721Z,6.82
2023-02-11T00:19:42.260Z,8.10
2023-02-11T00:22:43.729Z,7.95
2023-02-11T00:25:45.566Z,7.40
2023-02-11T00:28:47.552Z,6.93
2023-02-11T00:31:49.128Z,7.47
2023-02-11T00:34:52.267Z,7.35
2023-02-11T00:37:53.942Z,8.48
2023-02-11T00:40:55.240Z,7.78
2023-02-11T00:43:56.669Z,8.15
2023-02-11T00:46:57.966Z,7.97
2023-02-11T00:50:00.927Z,6.90
2023-02-11T00:53:02.251Z,8.13
2023-02-11T00:56:03.690Z,6.53
2023-02-11T00:59:04.995Z,7.82
2023-02-11T01:02:06.468Z,7.45
2023-02-11T01:05:08.217Z,7.78
2023-02-11T01:08:09.544Z,5.20
2023-02-11T01:11:12.779Z,5.97
2023-02-11T01:14:14.106Z,5.25
2023-02-11T01:17:15.473Z,7.03
2023-02-11T01:20:18.724Z,5.65
2023-02-11T01:23:20.409Z,5.82
2023-02-11T01:26:21.752Z,6.57
2023-02-11T01:29:23.051Z,7.03
2023-02-11T01:32:24.300Z,7.03
2023-02-11T01:35:25.583Z,7.57
2023-02-11T01:38:26.886Z,6.75
2023-02-11T01:41:28.137Z,6.28
2023-02-11T01:44:39.098Z,8.70
2023-02-11T01:47:40.487Z,6.72
2023-02-11T01:50:42.893Z,6.85
2023-02-11T01:54:05.295Z,6.85
2023-02-11T01:57:25.291Z,5.88
2023-02-11T02:00:33.758Z,5.20
2023-02-11T02:03:36.634Z,4.40
2023-02-11T02:06:43.300Z,6.97
2023-02-11T02:09:48.870Z,7.47
2023-02-11T02:12:50.120Z,5.68
2023-02-11T02:15:55.708Z,7.07
2023-02-11T02:19:15.942Z,4.85
2023-02-11T02:22:40.376Z,5.88
2023-02-11T02:25:50.820Z,8.00
2023-02-11T02:29:03.967Z,6.65
2023-02-11T02:32:24.218Z,6.07
2023-02-11T02:35:36.174Z,6.25
2023-02-11T02:38:40.842Z,6.47
2023-02-11T02:41:42.673Z,5.60
2023-02-11T02:44:50.466Z,6.93
2023-02-11T02:47:51.750Z,6.82
2023-02-11T02:50:57.639Z,8.35
2023-02-11T02:53:58.870Z,6.35
2023-02-11T02:57:15.177Z,7.57
2023-02-11T03:00:19.333Z,5.68
2023-02-11T03:03:29.972Z,6.10
2023-02-11T03:06:50.130Z,4.93
2023-02-11T03:09:54.939Z,7.45
2023-02-11T03:12:56.899Z,7.53
2023-02-11T03:15:59.600Z,6.47
2023-02-11T03:19:05.294Z,5.47
2023-02-11T03:22:08.571Z,6.30
2023-02-11T03:25:10.130Z,6.57
2023-02-11T03:28:19.757Z,6.30
2023-02-11T03:31:30.860Z,6.55
2023-02-11T03:34:38.221Z,6.78
2023-02-11T03:37:49.206Z,4.43
2023-02-11T03:40:51.254Z,6.85
2023-02-11T03:43:54.236Z,6.20
2023-02-11T03:46:55.835Z,6.40
2023-02-11T03:49:57.990Z,6.40
2023-02-11T03:53:00.862Z,6.00
2023-02-11T03:56:04.958Z,6.25
2023-02-11T03:59:06.243Z,7.00
2023-02-11T04:02:07.506Z,7.38
2023-02-11T04:05:10.553Z,7.97
2023-02-11T04:08:11.854Z,6.75
2023-02-11T04:11:13.226Z,6.88
2023-02-11T04:14:14.471Z,6.57
2023-02-11T04:17:15.747Z,5.88
2023-02-11T04:20:17.073Z,6.38
2023-02-11T04:23:18.337Z,6.15
2023-02-11T04:26:19.668Z,6.28
2023-02-11T04:29:20.921Z,6.78
2023-02-11T04:32:22.233Z,5.10
2023-02-11T04:35:23.484Z,6.05
2023-02-11T04:38:24.799Z,5.70
2023-02-11T04:41:26.090Z,6.60
2023-02-11T04:44:27.385Z,6.90
2023-02-11T04:47:29.698Z,4.07
2023-02-11T04:50:30.977Z,6.13
2023-02-11T04:53:32.342Z,7.85
2023-02-11T04:56:33.641Z,6.97
2023-02-11T04:59:34.927Z,6.30
2023-02-11T05:02:36.477Z,6.43
2023-02-11T05:05:38.531Z,6.47
2023-02-11T05:08:40.023Z,6.35
2023-02-11T05:11:41.353Z,5.40
2023-02-11T05:14:42.650Z,5.80
2023-02-11T05:17:43.932Z,6.35
2023-02-11T05:20:45.218Z,5.63
2023-02-11T05:23:46.903Z,6.40
2023-02-11T05:26:48.195Z,4.60
2023-02-11T05:29:49.456Z,7.65
2023-02-11T05:32:50.733Z,4.28
2023-02-11T05:35:52.359Z,6.03
2023-02-11T05:38:53.757Z,6.60
2023-02-11T05:41:55.028Z,7.50
2023-02-11T05:44:56.302Z,7.50
2023-02-11T05:47:57.635Z,4.88
2023-02-11T05:50:58.880Z,5.47
2023-02-11T05:54:00.125Z,7.85
2023-02-11T05:57:01.412Z,6.43
2023-02-11T06:00:04.168Z,6.47
2023-02-11T06:03:05.483Z,6.30
2023-02-11T06:06:09.764Z,6.45
2023-02-11T06:09:11.781Z,5.68
2023-02-11T06:12:13.085Z,5.75
2023-02-11T06:15:14.375Z,5.10
2023-02-11T06:18:15.614Z,5.30
2023-02-11T06:21:16.943Z,5.47
2023-02-11T06:24:38.407Z,8.52
2023-02-11T06:27:39.492Z,6.45
2023-02-11T06:30:40.825Z,6.55
2023-02-11T06:33:42.482Z,5.35
2023-02-11T06:36:44.078Z,8.90
2023-02-11T06:39:45.515Z,6.63
2023-02-11T06:42:46.784Z,6.53
2023-02-11T06:45:54.463Z,6.10
2023-02-11T06:48:55.874Z,7.03
2023-02-11T06:51:57.143Z,7.32
2023-02-11T06:54:58.388Z,6.93
2023-02-11T06:57:59.681Z,9.07
2023-02-11T07:01:03.636Z,7.53
2023-02-11T07:04:04.930Z,8.05
2023-02-11T07:07:06.276Z,4.25
2023-02-11T07:10:08.354Z,6.68
2023-02-11T07:13:09.623Z,6.45
2023-02-11T07:16:15.454Z,8.32
2023-02-11T07:19:17.476Z,12.52
2023-02-11T07:22:18.735Z,8.52
2023-02-11T07:25:19.963Z,4.53
2023-02-11T07:28:21.267Z,7.72
2023-02-11T07:31:26.579Z,7.75
2023-02-11T07:34:28.090Z,5.07
2023-02-11T07:37:29.438Z,7.45
2023-02-11T07:40:31.542Z,7.63
2023-02-11T07:43:33.312Z,8.13
2023-02-11T07:46:35.683Z,6.30
2023-02-11T07:49:37.070Z,8.25
2023-02-11T07:52:38.324Z,7.00
2023-02-11T07:55:39.607Z,7.32
2023-02-11T07:58:43.883Z,6.90
2023-02-11T08:01:45.466Z,6.07
2023-02-11T08:04:47.136Z,5.25
2023-02-11T08:07:50.788Z,5.97
2023-02-11T08:10:52.317Z,5.57
2023-02-11T08:13:54.399Z,7.20
2023-02-11T08:16:55.787Z,6.35
2023-02-11T08:19:57.172Z,6.32
2023-02-11T08:22:59.092Z,9.02
2023-02-11T08:26:03.902Z,5.30
2023-02-11T08:29:09.923Z,5.07
2023-02-11T08:32:11.251Z,7.78
2023-02-11T08:35:12.662Z,5.68
2023-02-11T08:38:13.896Z,7.18
2023-02-11T08:41:15.772Z,7.93
2023-02-11T08:44:17.829Z,8.38
2023-02-11T08:47:19.117Z,6.07
2023-02-11T08:50:20.404Z,7.65
2023-02-11T08:53:21.689Z,6.72
2023-02-11T08:56:23.532Z,6.95
2023-02-11T08:59:24.843Z,6.82
2023-02-11T09:02:26.157Z,8.35
2023-02-11T09:05:27.607Z,4.82
2023-02-11T09:08:28.911Z,4.35
2023-02-11T09:11:32.167Z,6.32
2023-02-11T09:14:33.492Z,9.05
2023-02-11T09:17:34.804Z,5.63
2023-02-11T09:20:36.106Z,6.30
2023-02-11T09:23:37.592Z,9.15
2023-02-11T09:26:40.924Z,7.45
2023-02-11T09:29:42.275Z,9.65
2023-02-11T09:32:43.577Z,8.75
2023-02-11T09:35:44.855Z,8.30
2023-02-11T09:38:46.663Z,10.82
2023-02-11T09:42:06.233Z,11.63
2023-02-11T09:45:12.637Z,11.85
2023-02-11T09:48:15.954Z,8.88
2023-02-11T09:51:20.524Z,8.90
2023-02-11T09:54:30.319Z,7.88
2023-02-11T09:57:33.350Z,8.18
2023-02-11T10:00:40.059Z,8.80
2023-02-11T10:03:52.364Z,8.18
2023-02-11T10:06:57.475Z,9.20
2023-02-11T10:10:03.978Z,10.82
2023-02-11T10:13:08.028Z,8.23
2023-02-11T10:16:09.374Z,8.65
2023-02-11T10:19:13.961Z,8.43
2023-02-11T10:25:27.377Z,8.25
2023-02-11T10:28:34.984Z,8.60
2023-02-11T10:31:39.728Z,7.70
2023-02-11T10:34:41.284Z,7.82
2023-02-11T10:37:44.520Z,10.23
2023-02-11T10:40:45.937Z,9.35
2023-02-11T10:43:47.197Z,9.40
2023-02-11T10:46:49.212Z,9.13
2023-02-11T10:49:50.542Z,7.43
2023-02-11T10:52:51.911Z,8.93
2023-02-11T10:55:54.705Z,9.38
2023-02-11T10:58:55.975Z,8.93
2023-02-11T11:02:00.551Z,8.60
2023-02-11T11:05:18.758Z,9.48
2023-02-11T11:08:20.248Z,8.63
2023-02-11T11:11:22.475Z,9.60
2023-02-11T11:14:28.743Z,10.20
2023-02-11T11:17:30.181Z,9.10
2023-02-11T11:20:36.177Z,10.68
2023-02-11T11:23:38.068Z,10.23
2023-02-11T11:26:44.138Z,9.95
2023-02-11T11:29:55.913Z,9.90
2023-02-11T11:32:57.854Z,10.05
2023-02-11T11:36:02.878Z,9.90
2023-02-11T11:39:17.494Z,10.30
2023-02-11T11:42:29.027Z,10.65
2023-02-11T11:45:30.439Z,10.88
2023-02-11T11:48:35.232Z,9.73
2023-02-11T11:51:39.181Z,9.35
2023-02-11T11:54:42.440Z,7.65
2023-02-11T11:57:43.820Z,8.48
2023-02-11T12:00:59.319Z,8.45
2023-02-11T12:04:06.700Z,7.20
2023-02-11T12:07:17.309Z,6.45
2023-02-11T12:10:27.784Z,7.95
2023-02-11T12:13:38.677Z,7.75
2023-02-11T12:16:43.482Z,7.53
2023-02-11T12:20:00.236Z,7.00
2023-02-11T12:23:18.658Z,7.70
2023-02-11T12:26:24.260Z,6.63
2023-02-11T12:29:28.407Z,7.30
2023-02-11T12:32:36.392Z,7.43
2023-02-11T12:35:43.855Z,7.22
2023-02-11T12:38:48.184Z,6.43
2023-02-11T12:42:26.756Z,7.00
2023-02-11T12:45:33.747Z,7.47
2023-02-11T12:48:39.462Z,6.60
2023-02-11T12:51:46.688Z,6.18
2023-02-11T12:55:00.605Z,7.22
2023-02-11T12:58:02.128Z,6.82
2023-02-11T13:01:32.597Z,7.03
2023-02-11T13:04:43.055Z,6.90
2023-02-11T13:07:46.345Z,7.13
2023-02-11T13:10:50.406Z,6.15
2023-02-11T13:13:51.940Z,5.93
2023-02-11T13:16:54.032Z,6.32
2023-02-11T13:19:59.623Z,6.30
2023-02-11T13:23:24.272Z,6.25
2023-02-11T13:26:29.565Z,5.68
2023-02-11T13:29:51.127Z,6.22
2023-02-11T13:32:58.208Z,7.35
2023-02-11T13:35:59.501Z,5.70
2023-02-11T13:39:02.452Z,6.30
2023-02-11T13:42:04.173Z,6.22
2023-02-11T13:45:17.126Z,6.63
2023-02-11T13:48:26.167Z,6.32
2023-02-11T13:51:35.517Z,6.10
2023-02-11T13:54:38.854Z,6.57
2023-02-11T13:57:40.852Z,7.15
2023-02-11T14:00:43.420Z,5.78
2023-02-11T14:04:23.430Z,5.97
2023-02-11T14:07:48.385Z,5.88
2023-02-11T14:10:51.088Z,6.20
2023-02-11T14:13:52.496Z,5.60
2023-02-11T14:17:00.154Z,5.43
2023-02-11T14:20:04.580Z,6.13
2023-02-11T14:23:06.107Z,7.05
2023-02-11T14:26:22.274Z,5.70
2023-02-11T14:29:23.514Z,5.70
2023-02-11T14:32:33.912Z,5.63
2023-02-11T14:35:39.277Z,5.65
2023-02-11T14:38:46.264Z,5.28
2023-02-11T14:41:48.561Z,4.72
2023-02-11T14:44:50.651Z,5.93
2023-02-11T14:48:12.213Z,5.68
2023-02-11T14:51:14.949Z,6.35
2023-02-11T14:54:23.387Z,6.43
2023-02-11T14:57:24.740Z,5.35
2023-02-11T15:00:26.080Z,6.03
2023-02-11T15:03:33.254Z,6.90
2023-02-11T15:06:34.578Z,6.15
2023-02-11T15:09:43.339Z,6.20
2023-02-11T15:12:47.844Z,5.28
2023-02-11T15:15:52.933Z,6.75
2023-02-11T15:18:56.599Z,6.13
2023-02-11T15:21:58.552Z,6.68
2023-02-11T15:25:00.177Z,6.78
2023-02-11T15:28:01.585Z,5.88
2023-02-11T15:31:14.328Z,6.32
2023-02-11T15:34:15.771Z,7.05
2023-02-11T15:37:20.375Z,6.00
2023-02-11T15:40:23.111Z,6.07
2023-02-11T15:43:24.450Z,6.60
2023-02-11T15:46:31.498Z,6.63
2023-02-11T15:49:33.321Z,7.75
2023-02-11T15:52:34.701Z,7.10
2023-02-11T15:55:35.964Z,5.85
2023-02-11T15:58:40.780Z,6.13
2023-02-11T16:05:03.770Z,6.20
2023-02-11T16:08:22.596Z,7.78
2023-02-11T16:11:30.428Z,7.63
2023-02-11T16:14:33.635Z,7.88
2023-02-11T16:17:35.907Z,7.90
2023-02-11T16:20:37.179Z,6.80
2023-02-11T16:23:39.724Z,6.05
2023-02-11T16:26:43.284Z,6.43
2023-02-11T16:29:45.902Z,6.90
2023-02-11T16:32:47.183Z,6.35
2023-02-11T16:35:48.819Z,7.32
2023-02-11T16:38:50.093Z,6.80
2023-02-11T16:41:52.058Z,6.10
2023-02-11T16:44:53.364Z,6.60
2023-02-11T16:47:54.673Z,7.15
2023-02-11T16:50:56.431Z,6.28
2023-02-11T16:53:57.902Z,7.65
2023-02-11T16:56:59.180Z,6.20
2023-02-11T17:00:00.401Z,6.32
2023-02-11T17:03:01.802Z,6.65
2023-02-11T17:06:05.583Z,7.32
2023-02-11T17:09:08.486Z,7.40
2023-02-11T17:12:09.763Z,6.32
2023-02-11T17:15:11.076Z,7.30
2023-02-11T17:18:13.589Z,7.60
2023-02-11T17:21:15.202Z,7.18
2023-02-11T17:24:17.029Z,7.20
2023-02-11T17:27:21.020Z,8.32
2023-02-11T17:30:22.987Z,7.90
2023-02-11T17:33:24.353Z,7.22
2023-02-11T17:36:25.606Z,7.82
2023-02-11T17:39:27.509Z,7.88
2023-02-11T17:42:29.788Z,7.78
2023-02-11T17:45:31.062Z,8.68
2023-02-11T17:48:32.333Z,9.00
2023-02-11T17:51:34.954Z,9.15
2023-02-11T17:54:37.792Z,9.80
2023-02-11T17:57:39.288Z,6.97
2023-02-11T18:00:40.629Z,9.50
2023-02-11T18:03:41.948Z,10.85
2023-02-11T18:06:43.603Z,9.02
2023-02-11T18:09:44.975Z,5.90
2023-02-11T18:12:46.261Z,6.07
2023-02-11T18:15:47.571Z,6.97
2023-02-11T18:18:49.726Z,6.40
2023-02-11T18:21:51.121Z,6.80
2023-02-11T18:24:52.995Z,7.40
2023-02-11T18:27:54.284Z,7.57
2023-02-11T18:30:59.128Z,6.22
2023-02-11T18:34:01.120Z,6.13
2023-02-11T18:37:02.403Z,7.68
2023-02-11T18:40:03.879Z,7.40
2023-02-11T18:43:05.188Z,7.20
2023-02-11T18:46:08.749Z,9.10
2023-02-11T18:49:13.071Z,9.05
2023-02-11T18:52:14.694Z,10.55
2023-02-11T18:55:16.401Z,10.60
2023-02-11T18:58:18.020Z,10.27
2023-02-11T19:01:21.172Z,9.07
2023-02-11T19:04:23.231Z,9.65
2023-02-11T19:07:25.321Z,9.85
2023-02-11T19:10:27.478Z,11.65
2023-02-11T19:13:28.979Z,9.68
2023-02-11T19:16:30.441Z,9.57
2023-02-11T19:19:32.622Z,10.73
2023-02-11T19:22:34.023Z,9.77
2023-02-11T19:25:36.055Z,9.35
2023-02-11T19:28:37.487Z,8.77
2023-02-11T19:31:39.006Z,9.27
2023-02-11T19:34:43.051Z,9.68
2023-02-11T19:37:45.668Z,8.20
2023-02-11T19:40:54.772Z,9.60
2023-02-11T19:43:56.783Z,10.55
2023-02-11T19:46:58.260Z,11.15
2023-02-11T19:49:59.523Z,9.27
2023-02-11T19:53:02.419Z,9.75
2023-02-11T19:56:08.584Z,10.52
2023-02-11T19:59:10.372Z,11.25
2023-02-11T20:02:12.816Z,9.68
2023-02-11T20:05:14.209Z,9.85
2023-02-11T20:08:17.162Z,8.57
2023-02-11T20:11:18.587Z,10.25
2023-02-11T20:14:20.028Z,10.73
2023-02-11T20:17:21.323Z,10.38
2023-02-11T20:20:22.753Z,9.60
2023-02-11T20:23:24.137Z,9.55
2023-02-11T20:26:25.448Z,9.52
2023-02-11T20:29:27.261Z,10.30
2023-02-11T20:32:30.591Z,9.90
2023-02-11T20:35:33.020Z,10.88
2023-02-11T20:38:34.327Z,11.90
2023-02-11T20:41:36.450Z,10.95
2023-02-11T20:44:38.378Z,10.63
2023-02-11T20:47:39.733Z,10.45
2023-02-11T20:50:41.083Z,9.77
2023-02-11T20:53:43.986Z,10.07
2023-02-11T20:56:47.990Z,10.18
2023-02-11T20:59:49.556Z,9.93
2023-02-11T21:02:52.049Z,10.70
2023-02-11T21:05:57.738Z,8.55
2023-02-11T21:08:59.073Z,10.77
2023-02-11T21:12:00.797Z,10.25
2023-02-11T21:15:05.318Z,10.38
2023-02-11T21:18:06.596Z,11.02
2023-02-11T21:21:07.923Z,11.13
2023-02-11T21:24:10.072Z,9.60
2023-02-11T21:27:11.390Z,10.82
2023-02-11T21:30:14.036Z,10.88
2023-02-11T21:33:15.334Z,10.82
2023-02-11T21:36:16.825Z,11.32
2023-02-11T21:39:19.154Z,11.02
2023-02-11T21:42:20.451Z,10.50
2023-02-11T21:45:22.311Z,11.95
2023-02-11T21:48:26.654Z,12.40
2023-02-11T21:51:27.934Z,12.60
2023-02-11T21:54:31.991Z,12.02
2023-02-11T21:57:33.309Z,12.68
2023-02-11T22:00:34.702Z,12.10
2023-02-11T22:03:36.018Z,12.88
2023-02-11T22:06:37.619Z,11.45
2023-02-11T22:09:39.093Z,12.82
2023-02-11T22:12:40.368Z,11.73
2023-02-11T22:15:41.673Z,11.38
2023-02-11T22:18:46.291Z,10.75
2023-02-11T22:21:47.619Z,11.10
2023-02-11T22:24:49.130Z,10.55
2023-02-11T22:27:50.533Z,9.57
2023-02-11T22:30:52.775Z,8.60
2023-02-11T22:33:54.258Z,11.63
2023-02-11T22:36:55.585Z,10.85
2023-02-11T22:39:56.864Z,12.35
2023-02-11T22:42:58.143Z,18.52
2023-02-11T22:46:00.446Z,12.75
2023-02-11T22:49:01.755Z,9.95
2023-02-11T22:52:03.476Z,10.52
2023-02-11T22:55:04.953Z,9.25
2023-02-11T22:58:06.491Z,10.43
2023-02-11T23:01:07.818Z,9.77
2023-02-11T23:04:11.043Z,11.77
2023-02-11T23:07:13.204Z,10.65
2023-02-11T23:10:14.567Z,8.70
2023-02-11T23:13:15.819Z,9.82
2023-02-11T23:16:18.504Z,8.13
2023-02-11T23:19:19.905Z,9.60
2023-02-11T23:22:21.177Z,9.90
2023-02-11T23:25:22.404Z,10.38
2023-02-11T23:28:23.766Z,10.98
2023-02-11T23:31:27.063Z,10.40
2023-02-11T23:34:28.506Z,9.80
2023-02-11T23:37:29.872Z,10.15
2023-02-11T23:40:31.208Z,10.38
2023-02-11T23:43:32.576Z,10.55
2023-02-11T23:46:33.844Z,9.80
2023-02-11T23:49:35.186Z,11.13
2023-02-11T23:52:36.609Z,12.23
2023-02-11T23:55:41.892Z,10.20
2023-02-11T23:58:44.663Z,10.32
